createdAt,value
2023-02-18T00:02:35.858Z,14.97
2023-02-18T00:05:38.005Z,13.70
2023-02-18T00:08:40.204Z,16.05
2023-02-18T00:11:42.229Z,10.60
2023-02-18T00:14:44.194Z,14.73
2023-02-18T00:17:46.660Z,11.33
2023-02-18T00:20:48.704Z,9.73
2023-02-18T00:23:50.756Z,9.43
2023-02-18T00:26:52.949Z,6.63
2023-02-18T00:29:55.317Z,8.00
2023-02-18T00:32:57.751Z,5.80
2023-02-18T00:36:03.972Z,5.17
2023-02-18T00:39:08.874Z,3.88
2023-02-18T00:42:10.870Z,6.13
2023-02-18T00:45:12.992Z,4.70
2023-02-18T00:48:15.096Z,4.50
2023-02-18T00:51:17.625Z,4.97
2023-02-18T00:54:19.956Z,3.00
2023-02-18T00:57:22.041Z,3.88
2023-02-18T01:00:25.656Z,4.97
2023-02-18T01:03:27.589Z,3.13
2023-02-18T01:06:29.623Z,5.17
2023-02-18T01:09:31.725Z,3.33
2023-02-18T01:12:40.464Z,3.05
2023-02-18T01:15:42.538Z,3.90
2023-02-18T01:18:45.943Z,3.03
2023-02-18T01:21:48.456Z,3.77
2023-02-18T01:24:50.412Z,3.28
2023-02-18T01:27:52.508Z,3.17
2023-02-18T01:30:55.003Z,2.83
2023-02-18T01:33:56.996Z,3.40
2023-02-18T01:36:59.478Z,2.33
2023-02-18T01:40:01.952Z,2.22
2023-02-18T01:43:03.988Z,2.08
2023-02-18T01:46:08.649Z,1.73
2023-02-18T01:49:11.052Z,3.30
2023-02-18T01:52:15.194Z,1.87
2023-02-18T01:55:17.509Z,1.90
2023-02-18T01:58:19.965Z,1.45
2023-02-18T02:01:21.956Z,1.52
2023-02-18T02:04:23.985Z,1.30
2023-02-18T02:07:26.239Z,3.33
2023-02-18T02:10:34.694Z,2.22
2023-02-18T02:13:42.323Z,1.40
2023-02-18T02:16:46.053Z,1.48
2023-02-18T02:20:07.850Z,0.70
2023-02-18T02:23:12.915Z,1.40
2023-02-18T02:26:23.918Z,1.67
2023-02-18T02:29:25.892Z,1.67
2023-02-18T02:32:46.786Z,1.50
2023-02-18T02:36:15.328Z,1.20
2023-02-18T02:39:27.930Z,1.50
2023-02-18T02:42:31.024Z,5.95
2023-02-18T02:45:45.793Z,1.13
2023-02-18T02:48:49.661Z,2.92
2023-02-18T02:51:53.414Z,1.40
2023-02-18T02:54:55.912Z,2.10
2023-02-18T02:57:58.074Z,0.85
2023-02-18T03:01:09.927Z,1.05
2023-02-18T03:04:30.672Z,3.00
2023-02-18T03:07:39.004Z,3.13
2023-02-18T03:10:59.851Z,2.00
2023-02-18T03:14:04.669Z,1.48
2023-02-18T03:17:27.978Z,0.90
2023-02-18T03:20:32.165Z,2.95
2023-02-18T03:23:54.878Z,3.53
2023-02-18T03:26:58.817Z,2.40
2023-02-18T03:30:21.350Z,2.67
2023-02-18T03:33:25.558Z,1.00
2023-02-18T03:36:28.909Z,1.67
2023-02-18T03:39:31.405Z,2.47
2023-02-18T03:42:33.785Z,1.27
2023-02-18T03:45:35.837Z,1.38
2023-02-18T03:48:38.286Z,1.10
2023-02-18T03:51:40.457Z,3.70
2023-02-18T03:54:42.862Z,1.93
2023-02-18T03:57:45.260Z,1.23
2023-02-18T04:00:47.219Z,1.77
2023-02-18T04:03:49.600Z,2.20
2023-02-18T04:06:51.731Z,1.92
2023-02-18T04:09:53.733Z,1.23
2023-02-18T04:12:55.715Z,1.23
2023-02-18T04:15:57.798Z,1.00
2023-02-18T04:19:00.169Z,1.52
2023-02-18T04:22:02.304Z,2.40
2023-02-18T04:25:04.850Z,2.50
2023-02-18T04:28:06.817Z,0.93
2023-02-18T04:31:09.158Z,1.10
2023-02-18T04:34:11.651Z,2.03
2023-02-18T04:37:13.650Z,1.45
2023-02-18T04:40:15.789Z,2.20
2023-02-18T04:43:17.738Z,3.27
2023-02-18T04:46:19.738Z,3.78
2023-02-18T04:49:22.237Z,1.63
2023-02-18T04:52:24.567Z,1.10
2023-02-18T04:55:26.636Z,2.30
2023-02-18T04:58:28.609Z,1.53
2023-02-18T05:01:30.853Z,1.17
2023-02-18T05:04:32.884Z,5.65
2023-02-18T05:07:35.006Z,0.68
2023-02-18T05:10:37.349Z,1.40
2023-02-18T05:13:40.397Z,1.30
2023-02-18T05:16:42.781Z,1.17
2023-02-18T05:19:45.241Z,0.98
2023-02-18T05:22:47.227Z,1.20
2023-02-18T05:25:49.685Z,0.90
2023-02-18T05:28:51.732Z,1.10
2023-02-18T05:31:53.967Z,1.25
2023-02-18T05:34:55.963Z,1.08
2023-02-18T05:37:58.505Z,1.00
2023-02-18T05:41:00.853Z,1.27
2023-02-18T05:44:22.099Z,0.80
2023-02-18T05:47:24.115Z,0.75
2023-02-18T05:50:26.077Z,0.95
2023-02-18T05:53:28.021Z,2.13
2023-02-18T05:56:30.101Z,1.90
2023-02-18T05:59:32.561Z,1.50
2023-02-18T06:02:34.570Z,1.70
2023-02-18T06:05:36.786Z,1.65
2023-02-18T06:08:38.936Z,1.67
2023-02-18T06:11:41.116Z,2.00
2023-02-18T06:14:43.252Z,2.20
2023-02-18T06:17:45.400Z,2.58
2023-02-18T06:20:50.340Z,2.65
2023-02-18T06:23:52.324Z,2.08
2023-02-18T06:26:54.687Z,1.93
2023-02-18T06:29:57.157Z,2.70
2023-02-18T06:32:59.664Z,1.20
2023-02-18T06:36:08.698Z,2.00
2023-02-18T06:39:10.819Z,2.55
2023-02-18T06:42:12.911Z,1.87
2023-02-18T06:45:15.338Z,2.43
2023-02-18T06:48:17.346Z,1.50
2023-02-18T06:51:19.675Z,1.38
2023-02-18T06:54:21.661Z,1.48
2023-02-18T06:57:23.598Z,1.40
2023-02-18T07:00:25.747Z,1.50
2023-02-18T07:03:27.790Z,1.40
2023-02-18T07:06:29.845Z,1.38
2023-02-18T07:09:32.645Z,2.05
2023-02-18T07:12:34.740Z,1.43
2023-02-18T07:15:36.734Z,2.90
2023-02-18T07:18:38.708Z,1.65
2023-02-18T07:21:40.750Z,1.00
2023-02-18T07:24:42.770Z,2.05
2023-02-18T07:27:44.777Z,1.17
2023-02-18T07:30:47.125Z,1.27
2023-02-18T07:33:49.504Z,1.10
2023-02-18T07:36:51.568Z,1.48
2023-02-18T07:39:53.636Z,1.45
2023-02-18T07:42:55.730Z,1.27
2023-02-18T07:45:58.647Z,1.67
2023-02-18T07:49:00.742Z,1.20
2023-02-18T07:52:04.427Z,1.52
2023-02-18T07:55:07.140Z,1.30
2023-02-18T07:58:09.177Z,1.80
2023-02-18T08:01:12.209Z,1.70
2023-02-18T08:04:15.415Z,0.93
2023-02-18T08:07:18.226Z,1.48
2023-02-18T08:10:20.311Z,2.05
2023-02-18T08:13:22.427Z,0.83
2023-02-18T08:16:24.498Z,1.27
2023-02-18T08:19:28.737Z,1.10
2023-02-18T08:22:30.787Z,1.50
2023-02-18T08:25:33.114Z,2.22
2023-02-18T08:28:35.117Z,1.30
2023-02-18T08:31:37.137Z,1.20
2023-02-18T08:34:39.252Z,3.25
2023-02-18T08:37:52.961Z,0.70
2023-02-18T08:41:03.254Z,1.08
2023-02-18T08:44:05.863Z,2.80
2023-02-18T08:48:17.598Z,0.80
2023-02-18T08:50:30.295Z,1.00
2023-02-18T08:53:32.269Z,1.30
2023-02-18T08:56:34.417Z,0.80
2023-02-18T08:59:36.498Z,1.27
2023-02-18T09:02:38.597Z,2.87
2023-02-18T09:05:40.794Z,2.55
2023-02-18T09:08:42.783Z,2.53
2023-02-18T09:11:44.923Z,3.17
2023-02-18T09:14:50.466Z,3.00
2023-02-18T09:17:52.655Z,1.23
2023-02-18T09:20:57.998Z,1.33
2023-02-18T09:24:00.052Z,1.10
2023-02-18T09:27:02.056Z,2.95
2023-02-18T09:30:04.599Z,1.83
2023-02-18T09:33:06.962Z,1.37
2023-02-18T09:36:09.361Z,3.17
2023-02-18T09:39:13.156Z,1.45
2023-02-18T09:42:15.888Z,1.90
2023-02-18T09:45:17.991Z,1.33
2023-02-18T09:48:20.993Z,1.87
2023-02-18T09:51:22.959Z,1.13
2023-02-18T09:54:26.773Z,1.98
2023-02-18T09:57:37.505Z,1.23
2023-02-18T10:00:40.178Z,1.67
2023-02-18T10:03:43.972Z,1.00
2023-02-18T10:06:46.340Z,1.60
2023-02-18T10:09:48.808Z,2.47
2023-02-18T10:12:50.856Z,1.65
2023-02-18T10:15:53.190Z,4.60
2023-02-18T10:18:59.204Z,1.20
2023-02-18T10:22:01.582Z,1.33
2023-02-18T10:25:05.008Z,1.23
2023-02-18T10:28:07.435Z,2.00
2023-02-18T10:31:11.356Z,1.07
2023-02-18T10:34:19.290Z,1.80
2023-02-18T10:37:24.734Z,1.30
2023-02-18T10:40:26.746Z,3.25
2023-02-18T10:43:47.654Z,1.67
2023-02-18T10:47:08.737Z,1.50
2023-02-18T10:50:12.220Z,2.33
2023-02-18T10:53:16.211Z,1.40
2023-02-18T10:56:34.281Z,1.48
2023-02-18T10:59:36.315Z,1.02
2023-02-18T11:02:38.544Z,3.70
2023-02-18T11:05:40.586Z,1.83
2023-02-18T11:08:43.082Z,1.55
2023-02-18T11:11:47.937Z,2.80
2023-02-18T11:15:05.385Z,1.33
2023-02-18T11:18:14.661Z,2.20
2023-02-18T11:21:21.951Z,1.87
2023-02-18T11:24:24.060Z,2.00
2023-02-18T11:27:41.705Z,2.67
2023-02-18T11:30:44.402Z,2.85
2023-02-18T11:34:04.978Z,4.00
2023-02-18T11:37:11.382Z,5.87
2023-02-18T11:40:23.536Z,1.75
2023-02-18T11:43:26.062Z,1.20
2023-02-18T11:46:28.613Z,3.03
2023-02-18T11:49:31.280Z,3.70
2023-02-18T11:52:34.629Z,4.33
2023-02-18T11:55:38.192Z,2.10
2023-02-18T11:58:41.635Z,4.20
2023-02-18T12:01:45.642Z,2.75
2023-02-18T12:04:49.425Z,2.63
2023-02-18T12:07:52.903Z,2.67
2023-02-18T12:10:55.349Z,2.60
2023-02-18T12:13:58.063Z,2.08
2023-02-18T12:17:12.400Z,1.73
2023-02-18T12:20:26.628Z,4.60
2023-02-18T12:23:47.670Z,3.50
2023-02-18T12:26:49.749Z,3.60
2023-02-18T12:29:55.344Z,2.35
2023-02-18T12:33:00.144Z,5.10
2023-02-18T12:36:20.733Z,7.27
2023-02-18T12:39:29.091Z,6.03
2023-02-18T12:42:31.440Z,3.25
2023-02-18T12:45:33.601Z,2.08
2023-02-18T12:49:02.571Z,3.95
2023-02-18T12:52:27.752Z,2.77
2023-02-18T12:55:47.418Z,2.53
2023-02-18T12:59:02.027Z,2.38
2023-02-18T13:02:04.354Z,1.83
2023-02-18T13:05:08.981Z,2.78
2023-02-18T13:08:16.553Z,1.67
2023-02-18T13:11:30.340Z,1.50
2023-02-18T13:14:33.807Z,1.52
2023-02-18T13:17:35.853Z,5.00
2023-02-18T13:20:38.196Z,2.25
2023-02-18T13:23:51.270Z,1.90
2023-02-18T13:26:53.875Z,1.93
2023-02-18T13:30:14.344Z,1.00
2023-02-18T13:33:19.570Z,1.23
2023-02-18T13:36:24.380Z,2.20
2023-02-18T13:39:26.541Z,0.90
2023-02-18T13:42:31.230Z,0.67
2023-02-18T13:45:33.735Z,0.98
2023-02-18T13:48:46.404Z,0.82
2023-02-18T13:51:52.106Z,0.60
2023-02-18T13:54:54.780Z,0.60
2023-02-18T13:57:56.910Z,0.63
2023-02-18T14:01:01.273Z,2.60
2023-02-18T14:04:04.005Z,0.57
2023-02-18T14:07:15.295Z,1.05
2023-02-18T14:10:18.494Z,2.83
2023-02-18T14:13:23.081Z,0.97
2023-02-18T14:16:25.087Z,2.17
2023-02-18T14:19:27.831Z,1.27
2023-02-18T14:22:29.792Z,1.23
2023-02-18T14:25:41.119Z,1.87
2023-02-18T14:28:49.611Z,0.63
2023-02-18T14:32:02.196Z,1.27
2023-02-18T14:35:07.533Z,1.70
2023-02-18T14:38:09.641Z,0.98
2023-02-18T14:41:14.081Z,1.13
2023-02-18T14:44:16.237Z,0.70
2023-02-18T14:47:28.053Z,1.00
2023-02-18T14:50:31.046Z,2.78
2023-02-18T14:53:33.018Z,0.82
2023-02-18T14:56:38.357Z,2.40
2023-02-18T14:59:41.541Z,1.73
2023-02-18T15:02:43.533Z,1.00
2023-02-18T15:05:45.512Z,2.28
2023-02-18T15:08:48.028Z,1.08
2023-02-18T15:11:51.442Z,1.37
2023-02-18T15:14:53.822Z,7.63
2023-02-18T15:17:56.257Z,13.73
2023-02-18T15:21:00.280Z,17.02
2023-02-18T15:24:37.866Z,21.92
2023-02-18T15:27:40.941Z,22.87
2023-02-18T15:30:43.766Z,28.20
2023-02-18T15:33:47.301Z,32.47
2023-02-18T15:37:02.092Z,32.60
2023-02-18T15:40:04.854Z,33.50
2023-02-18T15:43:07.016Z,34.47
2023-02-18T15:46:13.380Z,38.33
2023-02-18T15:49:15.442Z,41.65
2023-02-18T15:52:22.413Z,40.80
2023-02-18T15:55:24.410Z,41.75
2023-02-18T15:58:31.157Z,38.50
2023-02-18T16:01:33.137Z,38.23
2023-02-18T16:04:37.757Z,39.20
2023-02-18T16:07:49.376Z,44.13
2023-02-18T16:10:56.340Z,44.22
2023-02-18T16:13:58.398Z,48.10
2023-02-18T16:17:23.585Z,50.30
2023-02-18T16:20:38.232Z,44.58
2023-02-18T16:23:43.814Z,57.30
2023-02-18T16:26:46.313Z,72.55
2023-02-18T16:29:50.426Z,51.20
2023-02-18T16:32:52.478Z,48.80
2023-02-18T16:35:57.790Z,52.22
2023-02-18T16:39:01.923Z,50.15
2023-02-18T16:42:05.973Z,48.58
2023-02-18T16:45:09.235Z,53.07
2023-02-18T16:48:18.275Z,47.40
2023-02-18T16:51:23.226Z,53.67
2023-02-18T16:54:25.294Z,56.35
2023-02-18T16:57:27.233Z,54.15
2023-02-18T17:00:29.569Z,53.67
2023-02-18T17:03:31.833Z,57.10
2023-02-18T17:06:33.984Z,59.10
2023-02-18T17:09:35.955Z,58.28
2023-02-18T17:12:42.457Z,56.35
2023-02-18T17:15:46.379Z,132.67
2023-02-18T17:18:50.078Z,61.67
2023-02-18T17:21:52.127Z,58.08
2023-02-18T17:24:54.491Z,64.13
2023-02-18T17:27:56.980Z,64.78
2023-02-18T17:30:59.434Z,62.67
2023-02-18T17:34:03.277Z,60.87
2023-02-18T17:37:05.210Z,65.72
2023-02-18T17:40:09.208Z,311.20
2023-02-18T17:43:12.376Z,101.05
2023-02-18T17:46:15.590Z,111.27
2023-02-18T17:49:17.718Z,181.47
2023-02-18T17:52:30.705Z,92.53
2023-02-18T17:55:33.574Z,90.10
2023-02-18T17:58:35.606Z,76.28
2023-02-18T18:01:37.644Z,73.00
2023-02-18T18:04:39.792Z,74.87
2023-02-18T18:07:41.799Z,67.35
2023-02-18T18:10:50.113Z,71.47
2023-02-18T18:13:55.726Z,66.53
2023-02-18T18:16:58.209Z,73.27
2023-02-18T18:20:00.356Z,70.80
2023-02-18T18:23:03.250Z,70.80
2023-02-18T18:26:05.317Z,67.07
2023-02-18T18:29:07.753Z,69.37
2023-02-18T18:32:09.797Z,72.13
2023-02-18T18:35:28.764Z,72.68
2023-02-18T18:38:31.254Z,71.38
2023-02-18T18:41:33.369Z,69.17
2023-02-18T18:44:35.314Z,67.67
2023-02-18T18:47:37.707Z,76.47
2023-02-18T18:50:41.978Z,77.00
2023-02-18T18:53:44.118Z,80.75
2023-02-18T18:56:48.037Z,98.07
2023-02-18T18:59:50.502Z,100.77
2023-02-18T19:02:52.528Z,79.30
2023-02-18T19:05:54.729Z,74.97
2023-02-18T19:08:57.291Z,76.25
2023-02-18T19:11:59.770Z,73.53
2023-02-18T19:15:02.145Z,67.63
2023-02-18T19:18:04.276Z,77.70
2023-02-18T19:21:06.330Z,68.50
2023-02-18T19:24:08.958Z,77.78
2023-02-18T19:27:11.045Z,69.43
2023-02-18T19:30:14.205Z,67.60
2023-02-18T19:33:16.750Z,68.47
2023-02-18T19:36:18.850Z,65.95
2023-02-18T19:39:21.234Z,65.30
2023-02-18T19:42:23.197Z,71.67
2023-02-18T19:45:25.144Z,60.67
2023-02-18T19:48:27.168Z,65.38
2023-02-18T19:51:29.506Z,63.75
2023-02-18T19:54:31.585Z,67.38
2023-02-18T19:57:34.758Z,70.27
2023-02-18T20:00:36.752Z,62.10
2023-02-18T20:03:38.760Z,59.63
2023-02-18T20:06:40.933Z,57.35
2023-02-18T20:09:42.917Z,57.72
2023-02-18T20:12:45.039Z,59.63
2023-02-18T20:15:47.431Z,63.60
2023-02-18T20:18:49.944Z,59.42
2023-02-18T20:21:52.473Z,56.28
2023-02-18T20:24:54.584Z,53.97
2023-02-18T20:28:01.168Z,50.53
2023-02-18T20:31:05.128Z,49.97
2023-02-18T20:34:25.540Z,50.85
2023-02-18T20:37:27.567Z,49.65
2023-02-18T20:40:29.977Z,44.92
2023-02-18T20:43:32.992Z,46.23
2023-02-18T20:46:37.438Z,36.57
2023-02-18T20:49:40.510Z,36.53
2023-02-18T20:52:44.119Z,37.97
2023-02-18T20:55:47.343Z,37.67
2023-02-18T20:58:49.418Z,38.20
2023-02-18T21:01:51.423Z,37.20
2023-02-18T21:04:53.420Z,38.10
2023-02-18T21:07:55.902Z,38.03
2023-02-18T21:10:58.562Z,38.90
2023-02-18T21:14:01.586Z,33.87
2023-02-18T21:17:05.228Z,41.80
2023-02-18T21:20:07.891Z,35.78
2023-02-18T21:23:10.317Z,38.30
2023-02-18T21:26:13.464Z,36.75
2023-02-18T21:29:17.157Z,37.17
2023-02-18T21:32:19.952Z,35.55
2023-02-18T21:35:23.987Z,32.75
2023-02-18T21:38:26.483Z,34.03
2023-02-18T21:41:29.021Z,32.53
2023-02-18T21:44:41.705Z,30.53
2023-02-18T21:47:44.911Z,27.58
2023-02-18T21:50:46.857Z,29.45
2023-02-18T21:53:48.860Z,30.00
2023-02-18T21:56:51.552Z,28.80
2023-02-18T21:59:53.590Z,24.20
2023-02-18T22:02:55.927Z,25.75
2023-02-18T22:05:57.919Z,24.90
2023-02-18T22:09:01.505Z,28.25
2023-02-18T22:12:03.705Z,22.00
2023-02-18T22:15:12.512Z,19.43
2023-02-18T22:18:14.616Z,16.25
2023-02-18T22:21:16.981Z,9.38
2023-02-18T22:24:19.139Z,6.72
2023-02-18T22:27:21.607Z,5.60
2023-02-18T22:30:23.698Z,5.53
2023-02-18T22:33:26.201Z,3.75
2023-02-18T22:36:28.367Z,5.28
2023-02-18T22:39:30.739Z,5.10
2023-02-18T22:42:32.740Z,4.20
2023-02-18T22:45:38.372Z,5.33
2023-02-18T22:48:40.839Z,3.83
2023-02-18T22:51:43.340Z,6.00
2023-02-18T22:54:45.676Z,3.17
2023-02-18T22:57:47.838Z,3.63
2023-02-18T23:00:49.769Z,3.53
2023-02-18T23:03:52.589Z,3.42
2023-02-18T23:06:56.149Z,3.72
2023-02-18T23:09:58.829Z,3.42
2023-02-18T23:13:00.980Z,4.90
2023-02-18T23:16:03.680Z,3.63
2023-02-18T23:19:05.881Z,2.75
2023-02-18T23:22:15.549Z,4.50
2023-02-18T23:25:17.998Z,3.60
2023-02-18T23:28:20.086Z,3.57
2023-02-18T23:31:26.137Z,3.93
2023-02-18T23:34:28.715Z,2.95
2023-02-18T23:37:49.173Z,2.80
2023-02-18T23:40:51.702Z,3.70
2023-02-18T23:43:53.782Z,3.20
2023-02-18T23:46:56.523Z,3.53
2023-02-18T23:49:58.446Z,2.85
2023-02-18T23:53:00.928Z,2.63
2023-02-18T23:56:16.154Z,1.58
2023-02-18T23:59:18.890Z,1.87
